24h Messdaten per 07.07.2020 um 13:06:01

Datum Zeit Luftdruck Temp Balkon Feuchte Balkon Temp Strasse Feuchte Strasse Wind km/h Wind Boe Wind aus (Grad) Regen l/15min Licht Lux Sonne h/Monat
07.07.20 13:06:01 22.1 20
07.07.20 13:01:01 24.7 20
07.07.20 12:56:01 25.6 20
07.07.20 12:51:01 22.4 20
07.07.20 12:46:01 20.2 20
07.07.20 12:41:01 22.7 20
07.07.20 12:36:01 21.8 20
07.07.20 12:31:01 21.4 20
07.07.20 12:26:01 20.2 20
07.07.20 12:21:02 21.4 20
07.07.20 12:16:02 20.7 20
07.07.20 12:11:02 20.5 20 0.0
07.07.20 12:06:01 18.8 20 0.0
07.07.20 12:01:01 20.9 20 0.0
07.07.20 11:56:01 19.7 20 0.0
07.07.20 11:51:02 19.3 20 0.0
07.07.20 11:46:02 18.9 20 0.0
07.07.20 11:41:02 20.6 20 0.0
07.07.20 11:36:02 19.8 22 0.0
07.07.20 11:31:02 18.1 26 0.0
07.07.20 11:26:02 17.7 28 0.0
07.07.20 11:21:01 17.9 29 0.0
07.07.20 11:16:01 16.4 30 0.0
07.07.20 11:11:01 16.1 32 0.0
07.07.20 11:06:02 15.8 32 0.0
07.07.20 11:01:02 15.9 31 0.0
07.07.20 10:56:02 16.0 32 0.0
07.07.20 10:51:01 16.1 32 0.0
07.07.20 10:46:01 15.6 32 0.0
07.07.20 10:41:01 16.3 31 0.0
07.07.20 10:36:01 16.5 31 0.0
07.07.20 10:31:01 16.2 31 0.0
07.07.20 10:26:01 17.1 29 0.0
07.07.20 10:21:02 0.0
07.07.20 10:16:02 17.7 27 0.0
07.07.20 10:11:02 19.0 28 0.0
07.07.20 10:06:02 0.0
07.07.20 10:01:02 18.1 30 0.0
07.07.20 09:56:01 16.4 30 0.0
07.07.20 09:51:02 0.0
07.07.20 09:46:02 16.0 30 0.0
07.07.20 09:41:02 16.5 30 0.0
07.07.20 09:36:01 16.8 30 0.0
07.07.20 09:31:01 16.6 31 0.0
07.07.20 09:26:01 16.5 31 0.0
07.07.20 09:21:01 16.3 33 0.0
07.07.20 09:16:01 16.3 34 0.0
07.07.20 09:11:01 15.4 34 0.0
07.07.20 09:06:01 15.2 34 0.0
07.07.20 09:01:01 14.8 34 0.0
07.07.20 08:56:01 15.4 34 0.0
07.07.20 08:51:02 15.8 33 0.0
07.07.20 08:46:02 16.9 32 0.0
07.07.20 08:41:02 16.5 31 0.0
07.07.20 08:36:02 17.4 29 0.0
07.07.20 08:31:01 20.4 28 0.0
07.07.20 08:26:01 0.0
07.07.20 08:21:01 19.1 32 0.0
07.07.20 08:16:01 14.9 37 0.0
07.07.20 08:11:01 13.0 43 0.0
07.07.20 08:06:02 12.4 43 0.0
07.07.20 08:01:02 12.0 45 0.0
07.07.20 07:56:02 11.5 46 0.0
07.07.20 07:51:02 11.5 47 0.0
07.07.20 07:46:02 11.0 49 0.0
07.07.20 07:41:02 10.8 50 0.0
07.07.20 07:36:01 10.6 54 0.0
07.07.20 07:31:01 10.0 58 0.0
07.07.20 07:26:01 9.7 59 0.0
07.07.20 07:21:01 9.4 61 0.0
07.07.20 07:16:01 9.2 62 0.0
07.07.20 07:11:01 9.0 63 0.0
07.07.20 07:06:02 8.6 63 0.0
07.07.20 07:01:02 8.7 64 0.0
07.07.20 06:56:02 8.6 64 0.0
07.07.20 06:51:05 8.5 66 0.0
07.07.20 06:46:04 8.4 66 0.0
07.07.20 06:41:04 8.3 66 0.0
07.07.20 06:36:03 8.2 67 0.0
07.07.20 06:31:03 8.0 67 0.0
07.07.20 06:26:03 8.0 67 0.0
07.07.20 06:21:02 8.0 68 0.0
07.07.20 06:16:02 7.9 68 0.0
07.07.20 06:11:02 7.8 68 0.0
07.07.20 06:06:02 7.8 68 0.0
07.07.20 06:01:02 0.0
07.07.20 05:56:02 7.7 68 0.0
07.07.20 05:51:02 7.8 68 0.0
07.07.20 05:46:02 0.0
07.07.20 05:41:02 7.7 67 0.0
07.07.20 05:36:02 7.9 67 0.0
07.07.20 05:31:01 7.9 67 0.0
07.07.20 05:26:01 7.8 67 0.0
07.07.20 05:21:02 8.0 67 0.0
07.07.20 05:16:02 7.9 67 0.0
07.07.20 05:11:02 7.9 67 0.0
07.07.20 05:06:01 7.9 67 0.0
07.07.20 05:01:01 7.9 68 0.0
07.07.20 04:56:01 0.0
07.07.20 04:51:02 7.9 67 0.0
07.07.20 04:46:02 8.0 68 0.0
07.07.20 04:41:02 8.0 69 0.0
07.07.20 04:36:02 7.9 69 0.0
07.07.20 04:31:02 7.9 69 0.0
07.07.20 04:26:02 7.7 70 0.0
07.07.20 04:21:02 7.5 70 0.0
07.07.20 04:16:02 7.7 69 0.0
07.07.20 04:11:02 7.0 68 0.0
07.07.20 04:06:02 6.6 66 0.0
07.07.20 04:01:02 6.7 66 0.0
07.07.20 03:56:02 7.1 66 0.0
07.07.20 03:51:02 0.0
07.07.20 03:46:02 7.7 66 0.0
07.07.20 03:41:02 7.9 65 0.0
07.07.20 03:36:02 7.7 66 0.0
07.07.20 03:31:02 8.2 65 0.0
07.07.20 03:26:02 7.9 65 0.0
07.07.20 03:21:02 7.8 64 0.0
07.07.20 03:16:02 7.7 62 0.0
07.07.20 03:11:02 7.8 62 0.0
07.07.20 03:06:02 7.8 60 0.0
07.07.20 03:01:02 8.1 60 0.0
07.07.20 02:56:02 8.0 58 0.0
07.07.20 02:50:01 8.1 58 0.0
07.07.20 02:45:01 0.0
07.07.20 02:40:01 8.1 55 0.0
07.07.20 02:35:01 8.4 53 0.0
07.07.20 02:30:01 8.5 53 0.0
07.07.20 02:25:01 8.7 51 0.0
07.07.20 02:20:01 8.8 50 0.0
07.07.20 02:15:01 9.1 50 0.0
07.07.20 02:10:01 9.6 48 0.0
07.07.20 02:05:01 10.0 47 0.0
07.07.20 02:00:01 10.0 46 0.0
07.07.20 01:55:01 10.6 46 0.0
07.07.20 01:50:01 10.6 46 0.0
07.07.20 01:45:01 10.6 46 0.0
07.07.20 01:40:01 10.7 46 0.0
07.07.20 01:35:01 10.6 46 0.0
07.07.20 01:30:01 10.7 46 0.0
07.07.20 01:25:01 10.8 46 0.0
07.07.20 01:20:01 10.8 46 0.0
07.07.20 01:15:01 10.7 46 0.0
07.07.20 01:10:01 10.7 46 0.0
07.07.20 01:05:01 10.7 46 0.0
07.07.20 01:00:01 10.8 46 0.0
07.07.20 00:55:01 10.8 46 0.0
07.07.20 00:50:01 10.8 46 0.0
07.07.20 00:45:01 10.8 46 0.0
07.07.20 00:40:01 11.0 46 0.0
07.07.20 00:35:01 10.8 45 0.0
07.07.20 00:30:01 10.8 45 0.0
07.07.20 00:25:01 11.0 45 0.0
07.07.20 00:20:01 11.1 45 0.0
07.07.20 00:15:01 11.1 44 0.0
07.07.20 00:10:01 10.9 44 0.0
07.07.20 00:05:01 11.2 44 0.0
07.07.20 00:00:01 11.3 44 0.0
06.07.20 23:55:01 11.4 44 0.0
06.07.20 23:50:01 11.3 44 0.0
06.07.20 23:45:01 11.5 43 0.0
06.07.20 23:40:01 11.4 43 0.0
06.07.20 23:35:01 11.4 43 0.0
06.07.20 23:30:01 11.4 43 0.0
06.07.20 23:25:01 11.5 42 0.0
06.07.20 23:20:01 11.6 42 0.0
06.07.20 23:15:01 0.0
06.07.20 23:10:01 12.1 41 0.0
06.07.20 23:05:01 11.7 41 0.0
06.07.20 23:00:01 11.8 41 0.0
06.07.20 22:55:01 11.9 41 0.0
06.07.20 22:50:01 12.3 41 0.0
06.07.20 22:45:01 12.1 40 0.0
06.07.20 22:40:01 12.3 40 0.0
06.07.20 22:35:01 12.8 40 0.0
06.07.20 22:30:01 12.8 39 0.0
06.07.20 22:25:01 13.1 39 0.0
06.07.20 22:20:01 13.4 38 0.0
06.07.20 22:15:01 13.8 37 0.0
06.07.20 22:10:01 13.8 37 0.0
06.07.20 22:05:01 14.0 37 0.0
06.07.20 22:00:01 13.8 37 0.0
06.07.20 21:55:01 13.7 37 0.0
06.07.20 21:50:01 13.7 37 0.0
06.07.20 21:45:01 14.0 36 0.0
06.07.20 21:40:01 14.1 36 0.0
06.07.20 21:35:01 14.2 36 0.0
06.07.20 21:30:01 14.2 36 0.0
06.07.20 21:25:01 0.0
06.07.20 21:20:01 14.2 35 0.0
06.07.20 21:15:01 14.2 36 0.0
06.07.20 21:10:01
06.07.20 21:05:02 14.3 35 0.0
06.07.20 21:00:02 14.3 35 0.0
06.07.20 20:55:01 14.5 35 0.0
06.07.20 20:50:01 14.5 35 0.0
06.07.20 20:45:01 14.7 35 0.0
06.07.20 20:40:01 14.8 34
06.07.20 20:35:02 15.0 33 0.0
06.07.20 20:30:02 15.1 33 0.0
06.07.20 20:25:01 15.2 32 0.0
06.07.20 20:20:01 15.4 32 0.0
06.07.20 20:15:01 15.5 31 0.0
06.07.20 20:10:01 15.8 30 0.0
06.07.20 20:05:01 16.1 28 0.0
06.07.20 20:00:01 16.0 28 0.0
06.07.20 19:55:01 15.9 28 0.0
06.07.20 19:50:01 15.8 28 0.0
06.07.20 19:45:01 16.0 28 0.0
06.07.20 19:40:01 16.2 26 0.0
06.07.20 19:35:01 16.4 24 0.0
06.07.20 19:30:01 16.8 21 0.0
06.07.20 19:25:01 17.2 20 0.0
06.07.20 19:20:01 18.5 20 0.0
06.07.20 19:15:01 20.8 20 0.0
06.07.20 19:10:01 20.2 20 0.0
06.07.20 19:05:01 20.9 20 0.0
06.07.20 19:00:01 21.6 20 0.0
06.07.20 18:55:01 21.6 20
06.07.20 18:50:02 21.0 20 0.0
06.07.20 18:45:02 18.3 20 0.0
06.07.20 18:40:02 0.0
06.07.20 18:35:01 18.4 24 0.0
06.07.20 18:30:01 16.5 30 0.0
06.07.20 18:25:01 16.6 29 0.0
06.07.20 18:20:01 16.8 28 0.0
06.07.20 18:15:01 18.4 25 0.0
06.07.20 18:10:01 17.0 28
06.07.20 18:05:02 17.0 29 0.0
06.07.20 18:00:01 17.4 28 0.0
06.07.20 17:55:01 18.1 26 0.0
06.07.20 17:50:01 16.6 33 0.0
06.07.20 17:45:01 14.8 36 0.0
06.07.20 17:40:01 14.6 37 0.0
06.07.20 17:35:01 15.0 40 0.0
06.07.20 17:30:01 14.4 42 0.0
06.07.20 17:25:01 13.4 41 0.0
06.07.20 17:20:01 13.6 39 0.0
06.07.20 17:15:01 14.3 36 0.0
06.07.20 17:10:01 16.8 21 0.0
06.07.20 17:05:01 0.0
06.07.20 17:00:01 0.0
06.07.20 16:55:01 0.0
06.07.20 16:50:01 19.1 20 0.0
06.07.20 16:45:01 19.7 20 0.0
06.07.20 16:40:01 19.7 20 0.0
06.07.20 16:35:01 21.9 20 0.0
06.07.20 16:30:01 21.7 20 0.0
06.07.20 16:25:01 23.7 20
06.07.20 16:20:02 19.8 20 0.0
06.07.20 16:15:02 17.0 20 0.0
06.07.20 16:10:02 17.5 20 0.0
06.07.20 16:05:02 19.2 20 0.0
06.07.20 16:00:01 22.1 20 0.0
06.07.20 15:55:01 21.4 20
06.07.20 15:50:02 21.8 20 0.0
06.07.20 15:45:02 20.2 20 0.0
06.07.20 15:40:02 22.9 20 0.0
06.07.20 15:35:01 0.0
06.07.20 15:30:01 0.0
06.07.20 15:25:01 0.0
06.07.20 15:20:01 21.1 20 0.0
06.07.20 15:15:01 19.5 20 0.0
06.07.20 15:10:01 19.5 20
06.07.20 15:05:02 21.1 20 0.0
06.07.20 15:00:02 21.5 20 0.0
06.07.20 14:55:02 21.8 20 0.0
06.07.20 14:50:02 18.6 26 0.0
06.07.20 14:45:02 16.8 28 0.0
06.07.20 14:40:02 17.1 29 0.0
06.07.20 14:35:02 17.6 27 0.0
06.07.20 14:30:01 17.3 26 0.0
06.07.20 14:25:01 17.8 28
06.07.20 14:20:02 17.5 30 0.0
06.07.20 14:15:02 17.9 28 0.0
06.07.20 14:10:02 17.7 29 0.0
06.07.20 14:05:02 18.5 29 0.0
06.07.20 14:00:02 18.9 30 0.0
06.07.20 13:55:01 17.9 31
06.07.20 13:50:02 18.3 37 0.0
06.07.20 13:45:02 14.7 42 0.0
06.07.20 13:40:02 13.2 45 0.0
06.07.20 13:35:02 12.9 45 0.0
06.07.20 13:30:02 13.0 46 0.0
06.07.20 13:25:02 13.0 44 0.0
06.07.20 13:20:02 14.2 36 0.0
06.07.20 13:15:02 16.4 25 0.0
06.07.20 13:10:02 16.6 22 0.0
Index
© 2002-2012 Thomas Dreßler
Alle Rechte vorbehalten
letzte Scriptänderung 12.11.2012